Portada
METAR-TAF:

METAR-TAF

Aeropuertos :

Ciudad de Kuwait, Kuwait

Aeropuerto Internacional de Kuwait

latitud: 29-13N, longitud: 047-59E, altitud: 55 m

Observación

El informe se hizo hace 31 minutos, a las 20:00 UTC
Viento calma
Temperatura 26°C
Humedad 18%
Presión 1011 hPa
Visibilidad 10 km o más
sin nubes por debajo de 1500 m y sin presencia de cumulonimbus.

METAR: OKBK 272000Z 00000KT CAVOK 26/00 Q1011 NOSIG

Hora: 23:31 (20:31 UTC)

Pronóstico

El informe se hizo hace 3 horas y 46 minutos, a las 16:45 UTC
Pronóstico válido del 27 a las 18 UTC al 28 a las 24 UTC
Viento 3 kt con dirección variable
Visibilidad: 7000 m
Evolucionando progresivamente
del 28 a las 07 UTC al 28 a las 09 UTC
Viento 10 kt del sureste

TAF: OKBK 271645Z 2718/2824 VRB03KT 7000 NSC BECMG 2807/2809 14010KT

Observaciones y pronósticos meteorológicos de más de 4000 aeropuertos (mensajes METAR y TAF).

Los puntos amarillos y rojos representan las estaciones disponibles.

Ponga el ratón en el punto deseado para ver el nombre de la estación.

Haga clic para ver las observaciones y los pronósticos meteorológicos.

Para cambiar el mapa : haga clic en los botones verdes con una cruz de color negro para hacer un zoom, en el botón verde con un guión para alejar o en las flechas verdes para mapas adyacentes.


METAR-TAF: